Time;durP1;ratioP1;P1;durP2;ratioP2;P2;SDS_P1;SDS_P2;PMS_P1;PMS_P2;Temp;Humidity;BMP_temperature;BMP_pressure;BME280_temperature;BME280_humidity;BME280_pressure;Samples;Min_cycle;Max_cycle;Signal;HPM_P1;HPM_P2
2022/12/06 00:00:07;;;;;;;0.50;0.50;;;;;;;9.69;100.00;100250.47;5136541;27;20202;-64
2022/12/06 00:02:34;;;;;;;0.60;0.60;;;;;;;9.68;100.00;100251.34;5139674;27;20190;-64
2022/12/06 00:05:02;;;;;;;0.83;0.83;;;;;;;9.58;100.00;100231.84;5144442;27;20226;-64
2022/12/06 00:07:29;;;;;;;0.60;0.60;;;;;;;9.54;100.00;100232.72;5147630;27;20614;-64
2022/12/06 00:09:56;;;;;;;0.47;0.47;;;;;;;9.64;100.00;100247.09;5134870;27;20284;-64
2022/12/06 00:12:23;;;;;;;0.80;0.80;;;;;;;9.65;100.00;100246.25;5138782;27;20193;-64
2022/12/06 00:14:50;;;;;;;0.87;0.87;;;;;;;9.67;100.00;100247.06;5138934;27;20198;-64
2022/12/06 00:17:16;;;;;;;0.47;0.47;;;;;;;9.59;100.00;100226.72;5129223;27;20201;-63
2022/12/06 00:19:43;;;;;;;0.80;0.80;;;;;;;9.66;100.00;100235.97;5140395;27;20198;-64
2022/12/06 00:22:11;;;;;;;0.60;0.60;;;;;;;9.67;100.00;100240.22;5138058;27;20213;-63
2022/12/06 00:24:38;;;;;;;0.50;0.50;;;;;;;9.65;100.00;100230.88;5139755;27;20193;-64
2022/12/06 00:27:05;;;;;;;0.60;0.60;;;;;;;9.68;100.00;100241.09;5146553;27;20401;-64
2022/12/06 00:29:32;;;;;;;0.83;0.83;;;;;;;9.67;100.00;100234.25;5146739;27;20209;-64
2022/12/06 00:31:59;;;;;;;0.70;0.70;;;;;;;9.59;100.00;100215.63;5143689;27;20212;-63
2022/12/06 00:34:26;;;;;;;0.93;0.77;;;;;;;9.66;100.00;100223.16;5148051;27;20197;-64
2022/12/06 00:36:52;;;;;;;0.83;0.83;;;;;;;9.66;100.00;100224.91;5144909;27;20212;-64
2022/12/06 00:39:21;;;;;;;0.77;0.77;;;;;;;9.59;100.00;100211.34;5146219;27;20198;-63
2022/12/06 00:41:47;;;;;;;0.50;0.50;;;;;;;9.66;100.00;100223.16;5137839;27;20217;-64
2022/12/06 00:44:14;;;;;;;0.70;0.70;;;;;;;9.66;100.00;100218.06;5136948;27;20197;-64
2022/12/06 00:46:41;;;;;;;0.50;0.50;;;;;;;9.65;100.00;100220.66;5131410;27;20554;-64
2022/12/06 00:49:09;;;;;;;0.60;0.60;;;;;;;9.66;100.00;100222.34;5151175;27;20617;-64
2022/12/06 00:51:37;;;;;;;0.50;0.50;;;;;;;9.67;100.00;100216.34;5137735;27;20218;-64
2022/12/06 00:54:04;;;;;;;0.70;0.70;;;;;;;9.66;100.00;100212.94;5142767;27;20193;-64
2022/12/06 00:56:34;;;;;;;0.50;0.50;;;;;;;9.66;100.00;100207.00;5143184;27;20197;-63
2022/12/06 00:59:01;;;;;;;0.57;0.57;;;;;;;9.67;100.00;100209.50;5137329;27;20201;-64
2022/12/06 01:01:30;;;;;;;0.50;0.50;;;;;;;9.66;100.00;100202.69;5145426;27;20209;-64
2022/12/06 01:03:59;;;;;;;0.50;0.50;;;;;;;9.65;100.00;100195.06;5132334;27;20635;-63
2022/12/06 01:06:28;;;;;;;0.50;0.50;;;;;;;9.67;100.00;100199.28;5145715;27;20251;-64
2022/12/06 01:08:55;;;;;;;2.60;2.50;;;;;;;9.67;100.00;100194.16;5142904;27;20234;-64
2022/12/06 01:11:22;;;;;;;0.40;0.40;;;;;;;9.66;100.00;100197.56;5137072;27;20194;-64
2022/12/06 01:13:51;;;;;;;0.67;0.67;;;;;;;9.68;100.00;100188.19;5143027;27;20697;-64
2022/12/06 01:16:20;;;;;;;0.47;0.47;;;;;;;9.69;100.00;100186.47;5142555;27;20228;-64
2022/12/06 01:18:47;;;;;;;0.93;0.93;;;;;;;9.65;100.00;100177.97;5131009;27;20661;-64
2022/12/06 01:21:16;;;;;;;2.10;2.00;;;;;;;9.57;100.00;100166.97;5146874;27;20217;-64
2022/12/06 01:23:43;;;;;;;0.70;0.70;;;;;;;9.69;100.00;100187.31;5134162;27;20198;-64
2022/12/06 01:26:16;;;;;;;0.60;0.60;;;;;;;9.67;100.00;100177.94;5148380;27;20205;-64
2022/12/06 01:28:42;;;;;;;0.43;0.43;;;;;;;9.66;100.00;100176.28;5140205;27;20201;-64
2022/12/06 01:31:11;;;;;;;0.93;0.93;;;;;;;9.67;100.00;100177.94;5139070;27;20190;-63
2022/12/06 01:33:38;;;;;;;0.93;0.87;;;;;;;9.66;100.00;100181.41;5140464;27;20193;-64
2022/12/06 01:36:05;;;;;;;0.70;0.70;;;;;;;9.67;100.00;100177.94;5151985;27;20568;-64
2022/12/06 01:38:32;;;;;;;0.50;0.50;;;;;;;9.67;100.00;100191.59;5148692;27;20554;-64
2022/12/06 01:40:59;;;;;;;0.60;0.60;;;;;;;9.68;100.00;100185.63;5148669;27;20300;-64
2022/12/06 01:43:34;;;;;;;0.77;0.77;;;;;;;9.67;100.00;100188.19;5135854;27;20193;-64
2022/12/06 01:46:05;;;;;;;0.50;0.50;;;;;;;9.66;100.00;100179.66;5143980;27;20566;-64
2022/12/06 01:48:35;;;;;;;0.60;0.60;;;;;;;9.66;100.00;100166.03;5144703;27;20198;-64
2022/12/06 01:51:03;;;;;;;0.60;0.60;;;;;;;9.68;100.00;100184.75;5144161;27;20235;-64
2022/12/06 01:53:32;;;;;;;1.03;1.03;;;;;;;9.67;100.00;100177.94;5143660;27;20654;-64
2022/12/06 01:55:58;;;;;;;0.70;0.70;;;;;;;9.68;100.00;100174.53;5151039;27;20257;-64
2022/12/06 01:58:30;;;;;;;0.50;0.50;;;;;;;9.59;100.00;100172.09;5142286;27;20653;-64
2022/12/06 02:00:56;;;;;;;0.50;0.50;;;;;;;9.57;100.00;100155.91;5130222;27;20222;-64
2022/12/06 02:03:27;;;;;;;0.67;0.67;;;;;;;9.65;100.00;100174.56;5134429;27;20662;-64
2022/12/06 02:05:57;;;;;;;0.50;0.50;;;;;;;9.53;100.00;100154.28;5135699;27;20230;-63
2022/12/06 02:08:25;;;;;;;0.50;0.50;;;;;;;9.62;100.00;100160.09;5143950;27;20216;-64
2022/12/06 02:10:52;;;;;;;0.80;0.80;;;;;;;9.56;100.00;100138.88;5143508;27;20197;-64
2022/12/06 02:13:20;;;;;;;0.40;0.40;;;;;;;9.54;100.00;100138.03;5154552;27;20568;-64
2022/12/06 02:16:08;;;;;;;0.60;0.60;;;;;;;9.63;100.00;100150.72;5147621;27;20197;-64
2022/12/06 02:18:42;;;;;;;0.60;0.60;;;;;;;9.62;100.00;100155.00;5132176;27;20194;-64
2022/12/06 02:21:17;;;;;;;0.50;0.50;;;;;;;9.62;100.00;100165.22;5139876;27;20604;-64
2022/12/06 02:24:36;;;;;;;0.50;0.50;;;;;;;9.64;100.00;100165.19;5137415;27;20201;-64
2022/12/06 02:27:25;;;;;;;0.50;0.50;;;;;;;9.65;100.00;100160.06;5141607;27;20198;-63
2022/12/06 02:30:27;;;;;;;0.70;0.70;;;;;;;9.67;100.00;100168.56;5133653;27;20259;-64
2022/12/06 02:32:59;;;;;;;0.70;0.70;;;;;;;9.50;100.00;100138.06;5131932;27;20204;-64
2022/12/06 02:35:33;;;;;;;0.40;0.40;;;;;;;9.61;100.00;100157.56;5141869;27;20198;-63
2022/12/06 02:38:05;;;;;;;0.57;0.57;;;;;;;9.60;100.00;100155.84;5147909;27;20198;-64
2022/12/06 02:40:38;;;;;;;0.70;0.70;;;;;;;9.60;100.00;100160.97;5128888;27;20666;-65
2022/12/06 02:43:12;;;;;;;1.90;1.50;;;;;;;9.54;100.00;100143.13;5143937;27;20237;-64
2022/12/06 02:45:44;;;;;;;0.40;0.40;;;;;;;9.62;100.00;100151.56;5143061;27;20577;-64
2022/12/06 02:48:13;;;;;;;0.47;0.47;;;;;;;9.64;100.00;100157.50;5145651;27;20193;-63
2022/12/06 02:50:44;;;;;;;0.90;0.90;;;;;;;9.62;100.00;100154.13;5153511;27;20190;-64
2022/12/06 02:53:16;;;;;;;0.50;0.50;;;;;;;9.61;100.00;100152.44;5145304;27;20226;-64
2022/12/06 02:55:44;;;;;;;0.70;0.70;;;;;;;9.63;100.00;100151.53;5152520;27;20193;-63
2022/12/06 02:58:11;;;;;;;0.50;0.50;;;;;;;9.64;100.00;100152.38;5138345;27;20205;-64
2022/12/06 03:00:42;;;;;;;0.50;0.50;;;;;;;9.61;100.00;100148.16;5151050;27;20656;-64
2022/12/06 03:03:24;;;;;;;0.60;0.60;;;;;;;9.61;100.00;100150.72;5143129;27;20672;-64
2022/12/06 03:06:09;;;;;;;0.70;0.70;;;;;;;9.56;100.00;100149.09;5132839;27;20249;-64
2022/12/06 03:08:43;;;;;;;0.80;0.80;;;;;;;9.60;100.00;100150.72;5135846;27;20211;-64
2022/12/06 03:11:11;;;;;;;0.67;0.67;;;;;;;9.57;100.00;100155.91;5143208;27;20677;-64
2022/12/06 03:13:48;;;;;;;0.60;0.60;;;;;;;9.55;100.00;100152.53;5146943;27;20247;-64
2022/12/06 03:16:22;;;;;;;0.50;0.50;;;;;;;9.54;100.00;100151.66;5139202;27;20198;-64
2022/12/06 03:18:55;;;;;;;0.50;0.50;;;;;;;9.52;100.00;100148.28;5139187;27;20193;-64
2022/12/06 03:21:29;;;;;;;0.67;0.67;;;;;;;9.50;100.00;100155.97;5147964;27;20213;-63
2022/12/06 03:23:57;;;;;;;0.50;0.50;;;;;;;9.27;100.00;100127.28;5134146;27;20193;-64
2022/12/06 03:26:28;;;;;;;0.50;0.50;;;;;;;9.36;100.00;100146.81;5144693;27;20197;-63
2022/12/06 03:28:58;;;;;;;0.50;0.50;;;;;;;9.34;100.00;100149.38;5131589;27;20194;-64
2022/12/06 03:31:31;;;;;;;0.70;0.70;;;;;;;9.35;100.00;100151.09;5134102;27;20284;-63
2022/12/06 03:34:02;;;;;;;0.80;0.80;;;;;;;9.34;100.00;100146.81;5129397;27;20250;-63
2022/12/06 03:36:31;;;;;;;0.50;0.50;;;;;;;9.33;100.00;100152.81;5148659;27;20688;-64
2022/12/06 03:39:02;;;;;;;0.50;0.50;;;;;;;9.34;100.00;100149.38;5151927;27;20197;-64
2022/12/06 03:41:32;;;;;;;0.80;0.80;;;;;;;9.31;100.00;100144.31;5137763;27;20217;-64
2022/12/06 03:43:59;;;;;;;0.40;0.40;;;;;;;9.32;100.00;100146.00;5130982;27;20198;-64
2022/12/06 03:46:34;;;;;;;0.60;0.60;;;;;;;9.31;100.00;100136.63;5138826;27;20197;-63
2022/12/06 03:49:04;;;;;;;0.50;0.50;;;;;;;9.34;100.00;100144.25;5136421;27;20193;-64
2022/12/06 03:51:33;;;;;;;0.67;0.67;;;;;;;9.36;100.00;100140.00;5136914;27;20565;-64
2022/12/06 03:54:04;;;;;;;0.70;0.70;;;;;;;9.38;100.00;100139.94;5149995;27;20189;-63
2022/12/06 03:56:31;;;;;;;0.57;0.57;;;;;;;9.42;100.00;100139.91;5147374;27;20669;-64
2022/12/06 03:58:58;;;;;;;0.63;0.63;;;;;;;9.40;100.00;100141.63;5147039;27;20212;-63
2022/12/06 04:01:25;;;;;;;0.50;0.50;;;;;;;9.39;100.00;100142.50;5145617;27;20665;-63
2022/12/06 04:03:53;;;;;;;0.50;0.50;;;;;;;9.41;100.00;100143.31;5131811;27;20190;-64
2022/12/06 04:06:20;;;;;;;0.40;0.40;;;;;;;9.41;100.00;100134.78;5148051;27;20221;-64
2022/12/06 04:08:47;;;;;;;0.87;0.87;;;;;;;9.43;100.00;100144.13;5145478;27;20217;-64
2022/12/06 04:11:13;;;;;;;0.60;0.60;;;;;;;9.46;100.00;100139.00;5141722;27;20189;-64
2022/12/06 04:13:39;;;;;;;0.60;0.60;;;;;;;9.46;100.00;100139.00;5148047;27;20202;-63
2022/12/06 04:18:09;;;;;;;0.50;0.50;;;;;;;9.48;100.00;100141.53;5143781;27;20729;-63
2022/12/06 04:18:55;;;;;;;0.97;0.97;;;;;;;9.47;100.00;100135.56;5131637;27;20197;-63
2022/12/06 04:24:06;;;;;;;0.67;0.67;;;;;;;9.44;100.00;100127.91;5147914;27;20335;-64
2022/12/06 04:26:33;;;;;;;0.53;0.53;;;;;;;9.49;100.00;100133.00;5142394;27;20574;-64
2022/12/06 04:39:57;;;;;;;0.70;0.70;;;;;;;9.48;100.00;100127.03;5150829;27;20249;-64
2022/12/06 04:45:09;;;;;;;0.80;0.80;;;;;;;9.40;100.00;100133.94;5134283;27;20278;-64
2022/12/06 04:47:36;;;;;;;1.20;1.20;;;;;;;9.39;100.00;100136.53;5131347;27;20250;-64
2022/12/06 04:50:04;;;;;;;0.53;0.53;;;;;;;9.30;100.00;100126.44;5132395;27;20205;-64
2022/12/06 04:52:31;;;;;;;0.40;0.40;;;;;;;9.26;100.00;100128.19;5143117;27;20202;-63
2022/12/06 04:54:58;;;;;;;0.60;0.60;;;;;;;9.14;100.00;100113.00;5139088;27;20237;-63
2022/12/06 04:57:25;;;;;;;0.60;0.60;;;;;;;9.25;100.00;100131.59;5139985;27;20186;-64
2022/12/06 04:59:52;;;;;;;1.07;1.00;;;;;;;9.15;100.00;100117.22;5134138;27;20217;-64
2022/12/06 05:02:18;;;;;;;0.60;0.60;;;;;;;9.20;100.00;100124.84;5137228;27;20205;-64
2022/12/06 05:04:45;;;;;;;0.73;0.73;;;;;;;9.20;100.00;100133.38;5136818;27;20198;-62
2022/12/06 05:07:13;;;;;;;0.60;0.60;;;;;;;9.19;100.00;100133.38;5132630;27;20635;-62
2022/12/06 05:09:40;;;;;;;0.70;0.70;;;;;;;9.18;100.00;100132.53;5148300;27;20658;-63
2022/12/06 05:12:07;;;;;;;0.83;0.83;;;;;;;9.17;100.00;100140.25;5150721;27;20185;-64
2022/12/06 05:14:34;;;;;;;0.67;0.67;;;;;;;9.18;100.00;100142.78;5143360;27;20558;-64
2022/12/06 05:17:01;;;;;;;0.60;0.60;;;;;;;9.19;100.00;100144.47;5144876;27;20189;-64
2022/12/06 05:19:28;;;;;;;0.70;0.70;;;;;;;9.11;100.00;100141.16;5146726;27;20220;-62
2022/12/06 05:21:55;;;;;;;0.60;0.60;;;;;;;9.10;100.00;100139.47;5139693;27;20218;-62
2022/12/06 05:24:23;;;;;;;1.20;1.20;;;;;;;9.10;100.00;100128.41;5155191;27;20613;-62
2022/12/06 05:26:50;;;;;;;0.53;0.53;;;;;;;9.09;100.00;100121.56;5137232;27;20205;-62
2022/12/06 05:29:18;;;;;;;0.40;0.40;;;;;;;8.96;100.00;100110.66;5143367;27;20205;-62
2022/12/06 05:31:45;;;;;;;0.70;0.70;;;;;;;9.10;100.00;100134.38;5137796;27;20219;-62
2022/12/06 05:34:12;;;;;;;0.80;0.80;;;;;;;9.10;100.00;100129.25;5139887;27;20216;-63
2022/12/06 05:36:39;;;;;;;0.60;0.60;;;;;;;9.08;100.00;100123.28;5134457;27;20200;-62
2022/12/06 05:39:05;;;;;;;0.57;0.57;;;;;;;9.19;100.00;100134.25;5145744;27;20208;-62
2022/12/06 05:41:34;;;;;;;0.50;0.50;;;;;;;9.17;100.00;100130.88;5148941;27;20201;-62
2022/12/06 05:44:00;;;;;;;0.70;0.70;;;;;;;9.18;100.00;100129.97;5146853;27;20205;-64
2022/12/06 05:46:27;;;;;;;0.50;0.50;;;;;;;9.21;100.00;100142.72;5152497;27;20213;-63
2022/12/06 05:48:54;;;;;;;0.50;0.50;;;;;;;9.21;100.00;100137.59;5142329;27;20276;-62
2022/12/06 05:51:21;;;;;;;0.60;0.60;;;;;;;9.22;100.00;100139.31;5144000;27;20193;-62
2022/12/06 05:53:48;;;;;;;0.47;0.47;;;;;;;9.18;100.00;100132.53;5137033;27;20256;-62
2022/12/06 05:56:14;;;;;;;0.50;0.50;;;;;;;9.24;100.00;100139.31;5140431;27;20197;-62
2022/12/06 05:58:42;;;;;;;0.60;0.60;;;;;;;9.23;100.00;100141.03;5142904;27;20201;-62
2022/12/06 06:01:10;;;;;;;0.93;0.93;;;;;;;9.20;100.00;100141.06;5137716;27;20657;-63
2022/12/06 06:03:37;;;;;;;0.80;0.80;;;;;;;9.21;100.00;100140.16;5144430;27;20220;-62
2022/12/06 06:06:04;;;;;;;0.50;0.50;;;;;;;9.24;100.00;100137.56;5136243;27;20213;-62
2022/12/06 06:08:31;;;;;;;0.70;0.70;;;;;;;9.27;100.00;100142.66;5128318;27;20200;-62
2022/12/06 06:11:00;;;;;;;0.43;0.43;;;;;;;9.29;100.00;100146.06;5128491;27;20204;-63
2022/12/06 06:13:27;;;;;;;0.67;0.67;;;;;;;9.30;100.00;100147.75;5129150;27;20190;-63
2022/12/06 06:15:55;;;;;;;0.90;0.90;;;;;;;9.19;100.00;100129.13;5131441;27;20204;-64
2022/12/06 06:18:23;;;;;;;0.40;0.40;;;;;;;9.33;100.00;100142.59;5132809;27;20569;-64
2022/12/06 06:20:51;;;;;;;0.47;0.47;;;;;;;9.34;100.00;100133.19;5132440;27;20665;-64
2022/12/06 06:23:18;;;;;;;0.73;0.73;;;;;;;9.34;100.00;100141.69;5149224;27;20630;-64
2022/12/06 06:25:45;;;;;;;0.50;0.50;;;;;;;9.33;100.00;100136.63;5140111;27;20686;-65
2022/12/06 06:28:12;;;;;;;0.43;0.43;;;;;;;9.36;100.00;100146.81;5133859;27;20210;-65
2022/12/06 06:30:39;;;;;;;3.00;2.60;;;;;;;9.31;100.00;100149.41;5133049;27;20279;-64
2022/12/06 06:33:07;;;;;;;1.07;1.07;;;;;;;9.31;100.00;100144.31;5132164;27;20198;-65
2022/12/06 06:35:34;;;;;;;0.40;0.40;;;;;;;9.31;100.00;100136.63;5132560;27;20194;-64
2022/12/06 06:38:01;;;;;;;0.40;0.40;;;;;;;9.29;100.00;100128.13;5127858;27;20209;-64
2022/12/06 06:40:28;;;;;;;0.40;0.40;;;;;;;9.36;100.00;100132.31;5122515;27;20291;-63
2022/12/06 06:42:55;;;;;;;0.77;0.77;;;;;;;9.32;100.00;100130.66;5130641;27;20260;-67
2022/12/06 06:45:22;;;;;;;1.10;1.10;;;;;;;9.35;100.00;100140.00;5133067;27;21317;-65
2022/12/06 06:47:49;;;;;;;0.70;0.70;;;;;;;9.46;100.00;100138.16;5132724;27;20210;-65
2022/12/06 06:50:17;;;;;;;0.50;0.50;;;;;;;9.49;100.00;100143.22;5129342;27;20233;-65
2022/12/06 06:52:44;;;;;;;0.93;0.93;;;;;;;9.49;100.00;100143.22;5129944;27;20550;-65
2022/12/06 06:55:11;;;;;;;0.60;0.60;;;;;;;9.49;100.00;100144.06;5129396;27;20202;-65
2022/12/06 06:57:39;;;;;;;1.37;1.27;;;;;;;9.44;100.00;100147.53;5128520;27;20687;-65
2022/12/06 07:00:08;;;;;;;0.40;0.40;;;;;;;9.45;100.00;100142.41;5130999;27;20206;-65
2022/12/06 07:02:38;;;;;;;0.60;0.60;;;;;;;9.42;100.00;100146.72;5133953;27;20601;-65
2022/12/06 07:05:05;;;;;;;1.10;1.10;;;;;;;9.42;100.00;100146.72;5130458;27;20226;-65
2022/12/06 07:07:33;;;;;;;1.00;1.00;;;;;;;9.47;100.00;100139.81;5121383;27;20442;-70
2022/12/06 07:10:00;;;;;;;0.50;0.50;;;;;;;9.57;100.00;100141.38;5121215;27;20259;-69
2022/12/06 07:12:27;;;;;;;1.00;1.00;;;;;;;9.60;100.00;100132.81;5121322;27;20247;-69
2022/12/06 07:14:54;;;;;;;1.03;1.03;;;;;;;9.52;100.00;100132.09;5121579;27;20735;-68
2022/12/06 07:17:21;;;;;;;0.50;0.50;;;;;;;9.58;100.00;100132.00;5129093;27;20661;-68
2022/12/06 07:19:47;;;;;;;0.70;0.70;;;;;;;9.49;100.00;100103.13;5128612;27;20205;-68
2022/12/06 07:22:14;;;;;;;0.90;0.87;;;;;;;9.59;100.00;100108.09;5127681;27;20202;-69
2022/12/06 07:24:42;;;;;;;0.57;0.57;;;;;;;9.71;100.00;100129.25;5128747;27;20278;-70
2022/12/06 07:27:09;;;;;;;0.60;0.60;;;;;;;9.71;100.00;100118.16;5131711;27;20205;-67
2022/12/06 07:29:37;;;;;;;0.40;0.40;;;;;;;9.80;100.00;100134.22;5132302;27;20205;-67
2022/12/06 07:32:04;;;;;;;0.53;0.53;;;;;;;9.78;100.00;100124.88;5131458;27;20229;-68
2022/12/06 07:34:32;;;;;;;0.50;0.50;;;;;;;9.82;100.00;100126.53;5129795;27;20205;-67
2022/12/06 07:36:59;;;;;;;0.50;0.50;;;;;;;9.86;100.00;100133.28;5129704;27;20270;-67
2022/12/06 07:39:26;;;;;;;0.60;0.60;;;;;;;9.87;100.00;100134.97;5131384;27;20603;-69
2022/12/06 07:45:03;;;;;;;1.07;1.07;;;;;;;9.98;100.00;100138.22;5088907;27;20565;-69
2022/12/06 07:47:33;;;;;;;0.50;0.50;;;;;;;10.03;100.00;100131.28;5128576;27;20202;-70
2022/12/06 07:50:00;;;;;;;0.40;0.40;;;;;;;10.09;100.00;100141.44;5130969;27;20197;-69
2022/12/06 07:52:31;;;;;;;0.63;0.63;;;;;;;10.12;100.00;100141.38;5136182;27;20202;-68
2022/12/06 07:54:58;;;;;;;0.70;0.70;;;;;;;10.12;100.00;100126.00;5135380;27;20588;-67
2022/12/06 07:57:26;;;;;;;0.57;0.57;;;;;;;10.16;100.00;100132.81;5129310;27;20199;-68
2022/12/06 07:59:54;;;;;;;1.70;1.70;;;;;;;10.13;100.00;100117.47;5131071;27;20202;-68
2022/12/06 08:02:24;;;;;;;0.70;0.70;;;;;;;10.29;100.00;100128.31;5130290;27;20234;-68
2022/12/06 08:04:51;;;;;;;0.40;0.40;;;;;;;10.32;100.00;100133.41;5132120;27;20202;-69
2022/12/06 08:07:19;;;;;;;0.90;0.90;;;;;;;10.35;100.00;100134.19;5132123;27;20198;-68
2022/12/06 08:09:46;;;;;;;0.50;0.50;;;;;;;10.30;100.00;100130.88;5132092;27;20258;-67
2022/12/06 08:12:12;;;;;;;0.40;0.40;;;;;;;10.36;100.00;100137.59;5132211;27;20221;-67
2022/12/06 08:14:40;;;;;;;0.60;0.60;;;;;;;10.40;100.00;100131.56;5131807;27;20200;-68
2022/12/06 08:17:07;;;;;;;0.50;0.50;;;;;;;10.44;100.00;100122.91;5132165;27;20198;-67
2022/12/06 08:19:34;;;;;;;0.53;0.53;;;;;;;10.41;100.00;100123.81;5133194;27;20301;-67
2022/12/06 08:22:01;;;;;;;0.40;0.40;;;;;;;10.50;100.00;100117.72;5130580;27;20197;-68
2022/12/06 08:24:28;;;;;;;0.50;0.50;;;;;;;10.49;100.00;100122.00;5131643;27;20213;-68
2022/12/06 08:26:55;;;;;;;0.60;0.60;;;;;;;10.35;100.00;100106.00;5145091;27;20202;-67
2022/12/06 08:29:22;;;;;;;1.17;1.17;;;;;;;10.41;100.00;100103.31;5134483;27;20202;-68
2022/12/06 08:31:50;;;;;;;0.60;0.60;;;;;;;10.50;100.00;100108.28;5124741;27;20198;-68
2022/12/06 08:34:17;;;;;;;2.00;1.13;;;;;;;10.58;100.00;100097.88;5121119;27;20203;-69
2022/12/06 08:36:44;;;;;;;0.60;0.60;;;;;;;10.52;100.00;100091.16;5125211;27;20198;-70
2022/12/06 08:39:12;;;;;;;0.57;0.57;;;;;;;10.73;100.00;100100.16;5124371;27;20582;-68
2022/12/06 08:41:58;;;;;;;0.60;0.60;;;;;;;10.84;100.00;100097.38;5120383;27;20218;-69
2022/12/06 08:44:26;;;;;;;1.50;1.50;;;;;;;10.89;100.00;100091.28;5122456;27;20214;-66
2022/12/06 08:46:55;;;;;;;1.10;1.10;;;;;;;10.98;100.00;100087.69;5127329;27;20255;-69
2022/12/06 08:49:24;;;;;;;0.60;0.60;;;;;;;10.97;100.00;100083.44;5124074;27;20296;-67
2022/12/06 08:51:52;;;;;;;0.40;0.40;;;;;;;10.95;100.00;100087.75;5126858;27;20692;-67
2022/12/06 08:54:21;;;;;;;0.50;0.50;;;;;;;10.77;100.00;100081.25;5129902;27;20681;-66
2022/12/06 08:56:48;;;;;;;1.80;0.80;;;;;;;10.89;100.00;100082.72;5129071;27;21159;-69
2022/12/06 08:59:15;;;;;;;0.60;0.60;;;;;;;11.02;100.00;100086.72;5131502;27;20190;-67
2022/12/06 09:01:43;;;;;;;0.60;0.60;;;;;;;10.97;100.00;100088.56;5142337;27;20194;-68
2022/12/06 09:04:12;;;;;;;0.40;0.40;;;;;;;10.98;100.00;100085.13;5131355;27;20213;-68
2022/12/06 09:06:40;;;;;;;0.60;0.60;;;;;;;10.96;100.00;100092.00;5131597;27;20225;-69
2022/12/06 09:09:08;;;;;;;0.47;0.47;;;;;;;10.98;100.00;100080.00;5129419;27;20624;-69
2022/12/06 09:11:36;;;;;;;0.50;0.50;;;;;;;11.06;100.00;100078.09;5130355;27;20456;-68
2022/12/06 09:14:03;;;;;;;0.63;0.63;;;;;;;11.18;100.00;100067.56;5129434;27;20195;-69
2022/12/06 09:16:30;;;;;;;0.50;0.50;;;;;;;11.23;100.00;100063.19;5130925;27;20254;-68
2022/12/06 09:18:57;;;;;;;0.60;0.60;;;;;;;11.13;100.00;100066.81;5131175;27;20609;-68
2022/12/06 09:21:28;;;;;;;0.50;0.50;;;;;;;11.15;100.00;100062.50;5131166;27;20194;-68
2022/12/06 09:23:56;;;;;;;0.70;0.70;;;;;;;11.17;100.00;100055.63;5131147;27;20275;-71
2022/12/06 09:26:25;;;;;;;0.73;0.73;;;;;;;11.20;100.00;100060.69;5130551;27;20689;-68
2022/12/06 09:28:53;;;;;;;0.40;0.40;;;;;;;11.21;100.00;100056.41;5137002;27;20228;-67
2022/12/06 09:31:20;;;;;;;0.40;0.40;;;;;;;11.14;100.00;100055.69;5128251;27;20290;-68
2022/12/06 09:33:47;;;;;;;0.40;0.40;;;;;;;11.11;100.00;100045.50;5144120;27;20200;-69
2022/12/06 09:36:19;;;;;;;0.60;0.60;;;;;;;11.10;100.00;100041.22;5143689;27;20206;-69
2022/12/06 09:38:51;;;;;;;0.90;0.90;;;;;;;11.24;100.00;100041.78;5127396;27;20207;-67
2022/12/06 09:41:45;;;;;;;0.60;0.60;;;;;;;11.18;100.00;100041.91;5134300;27;20197;-68
2022/12/06 09:44:34;;;;;;;1.37;1.37;;;;;;;11.23;100.00;100034.94;5131440;27;20222;-73
2022/12/06 09:47:14;;;;;;;2.53;2.47;;;;;;;11.35;100.00;100033.81;5131713;27;20202;-66
2022/12/06 09:49:54;;;;;;;0.80;0.80;;;;;;;11.45;100.00;100038.72;5135377;27;20561;-67
2022/12/06 09:52:48;;;;;;;0.63;0.63;;;;;;;11.52;100.00;100036.84;5146637;27;20193;-66
2022/12/06 09:55:38;;;;;;;0.77;0.77;;;;;;;11.56;100.00;100023.06;5132231;27;20207;-68
2022/12/06 09:58:15;;;;;;;0.50;0.50;;;;;;;11.56;99.36;100018.78;5134406;27;20233;-69
2022/12/06 10:00:47;;;;;;;0.60;0.60;;;;;;;11.49;100.00;100004.38;5135831;27;21543;-69
2022/12/06 10:03:31;;;;;;;0.60;0.60;;;;;;;11.57;100.00;100001.59;5132939;27;20213;-71
2022/12/06 10:06:01;;;;;;;1.60;1.60;;;;;;;11.53;100.00;100003.41;5127448;27;20229;-70
2022/12/06 10:08:47;;;;;;;0.40;0.40;;;;;;;11.59;100.00;99997.31;5129782;27;20557;-70
2022/12/06 10:11:25;;;;;;;1.10;1.10;;;;;;;11.65;100.00;99991.16;5139391;27;20201;-69
2022/12/06 10:14:00;;;;;;;0.43;0.43;;;;;;;11.43;100.00;99965.19;5135699;27;20282;-69
2022/12/06 10:16:41;;;;;;;0.60;0.60;;;;;;;11.51;99.89;99979.50;5136088;27;20661;-68
2022/12/06 10:19:18;;;;;;;0.80;0.80;;;;;;;11.52;100.00;99977.78;5149710;27;20206;-69
2022/12/06 10:21:55;;;;;;;0.70;0.70;;;;;;;11.66;100.00;99967.19;5130169;27;20266;-69
2022/12/06 10:24:35;;;;;;;0.60;0.60;;;;;;;11.60;100.00;99963.00;5135073;27;20214;-68
2022/12/06 10:27:09;;;;;;;0.70;0.70;;;;;;;11.57;100.00;99958.81;5138360;27;20549;-68
2022/12/06 10:29:50;;;;;;;0.50;0.50;;;;;;;11.54;100.00;99953.75;5154612;27;20185;-66
2022/12/06 10:32:19;;;;;;;0.50;0.50;;;;;;;11.58;100.00;99949.38;5154275;27;20261;-69
2022/12/06 10:34:55;;;;;;;1.43;0.90;;;;;;;11.60;99.94;99938.19;5143439;27;20243;-67
2022/12/06 10:37:38;;;;;;;0.90;0.90;;;;;;;11.53;100.00;99944.34;5135055;27;20300;-63
2022/12/06 10:40:13;;;;;;;0.57;0.57;;;;;;;11.46;100.00;99930.00;5145129;27;20209;-67
2022/12/06 10:42:45;;;;;;;0.50;0.50;;;;;;;11.44;100.00;99939.44;5126496;27;20209;-67
2022/12/06 10:48:15;;;;;;;0.67;0.67;;;;;;;11.53;100.00;99926.38;5131077;27;20286;-69
2022/12/06 10:50:46;;;;;;;0.67;0.67;;;;;;;11.44;100.00;99923.19;5146155;27;20196;-69
2022/12/06 10:53:18;;;;;;;1.10;1.10;;;;;;;11.48;100.00;99917.13;5144095;27;20318;-69
2022/12/06 10:55:51;;;;;;;3.20;0.93;;;;;;;11.36;100.00;99908.00;5133172;27;20259;-69
2022/12/06 10:58:34;;;;;;;0.50;0.50;;;;;;;11.34;100.00;99894.34;5135868;27;20194;-69
2022/12/06 11:01:05;;;;;;;0.60;0.60;;;;;;;11.34;100.00;99888.41;5130036;27;20201;-69
2022/12/06 11:03:36;;;;;;;0.67;0.67;;;;;;;11.35;100.00;99901.19;5132906;27;20589;-71
2022/12/06 11:06:09;;;;;;;0.70;0.70;;;;;;;11.42;100.00;99901.88;5131407;27;20233;-70
2022/12/06 11:08:39;;;;;;;0.50;0.50;;;;;;;11.51;100.00;99901.63;5130935;27;20210;-71
2022/12/06 11:11:14;;;;;;;1.40;1.27;;;;;;;11.52;99.64;99899.03;5130294;27;20237;-71
2022/12/06 11:13:47;;;;;;;0.80;0.80;;;;;;;11.60;100.00;99891.97;5130907;27;20654;-71
2022/12/06 11:16:20;;;;;;;0.43;0.43;;;;;;;11.57;98.90;99889.47;5125802;27;20750;-72
2022/12/06 11:18:48;;;;;;;0.70;0.70;;;;;;;11.57;97.37;99886.91;5129447;27;20270;-71
2022/12/06 11:21:24;;;;;;;0.37;0.37;;;;;;;11.57;99.03;99875.78;5139024;27;20567;-71
2022/12/06 11:23:57;;;;;;;0.40;0.40;;;;;;;11.57;99.50;99881.78;5145273;27;20209;-72
2022/12/06 11:26:33;;;;;;;0.60;0.60;;;;;;;11.58;97.68;99872.34;5131627;27;20194;-67
2022/12/06 11:29:05;;;;;;;1.33;1.33;;;;;;;11.55;96.19;99875.84;5132476;27;20208;-69
2022/12/06 11:31:36;;;;;;;0.50;0.50;;;;;;;11.44;96.73;99865.00;5132774;27;20243;-68
2022/12/06 11:34:05;;;;;;;0.57;0.57;;;;;;;11.57;97.10;99873.22;5143881;27;20201;-68
2022/12/06 11:36:32;;;;;;;0.50;0.50;;;;;;;11.60;95.88;99873.13;5138270;27;20194;-68
2022/12/06 11:39:00;;;;;;;2.03;1.23;;;;;;;11.61;95.58;99872.25;5132656;27;20190;-68
2022/12/06 11:41:30;;;;;;;1.23;1.20;;;;;;;11.63;94.83;99869.66;5132658;27;20198;-68
2022/12/06 11:43:58;;;;;;;0.87;0.87;;;;;;;11.78;95.23;99874.41;5132091;27;20259;-68
2022/12/06 11:46:27;;;;;;;0.50;0.50;;;;;;;11.66;93.92;99844.75;5131717;27;20692;-68
2022/12/06 11:48:57;;;;;;;0.87;0.87;;;;;;;11.72;93.06;99856.59;5130152;27;20624;-70
2022/12/06 11:51:25;;;;;;;1.20;1.20;;;;;;;11.85;93.68;99865.66;5128650;27;20645;-68
2022/12/06 11:54:00;;;;;;;0.40;0.40;;;;;;;11.90;93.09;99858.66;5131247;27;20190;-68
2022/12/06 11:56:29;;;;;;;0.53;0.53;;;;;;;11.92;92.11;99872.31;5135866;27;20663;-70
2022/12/06 11:59:10;;;;;;;0.50;0.50;;;;;;;11.81;90.91;99866.63;5133106;27;20334;-68